createdAt,value
2023-01-11T00:00:32.069Z,-14.11
2023-01-11T00:03:00.336Z,-14.19
2023-01-11T00:05:27.124Z,-14.10
2023-01-11T00:07:54.293Z,-14.14
2023-01-11T00:10:21.266Z,-14.04
2023-01-11T00:12:47.935Z,-14.06
2023-01-11T00:15:14.532Z,-14.03
2023-01-11T00:20:09.546Z,-14.05
2023-01-11T00:22:36.505Z,-13.83
2023-01-11T00:25:03.532Z,-14.01
2023-01-11T00:27:30.068Z,-13.97
2023-01-11T00:29:56.589Z,-14.05
2023-01-11T00:32:23.381Z,-14.20
2023-01-11T00:34:49.960Z,-14.12
2023-01-11T00:37:16.536Z,-14.10
2023-01-11T00:39:43.385Z,-13.94
2023-01-11T00:42:11.720Z,-13.91
2023-01-11T00:44:38.283Z,-13.80
2023-01-11T00:47:04.971Z,-13.91
2023-01-11T00:49:31.513Z,-13.95
2023-01-11T00:51:58.140Z,-13.84
2023-01-11T00:54:24.818Z,-13.80
2023-01-11T00:56:51.284Z,-13.87
2023-01-11T00:59:17.749Z,-13.66
2023-01-11T01:01:44.427Z,-13.76
2023-01-11T01:04:10.998Z,-13.74
2023-01-11T01:06:37.528Z,-13.88
2023-01-11T01:09:04.310Z,-13.87
2023-01-11T01:11:30.962Z,-13.80
2023-01-11T01:13:57.484Z,-13.75
2023-01-11T01:16:24.354Z,-13.75
2023-01-11T01:18:50.875Z,-13.89
2023-01-11T01:21:17.353Z,-13.89
2023-01-11T01:23:43.940Z,-14.00
2023-01-11T01:26:10.528Z,-13.90
2023-01-11T01:28:37.125Z,-13.66
2023-01-11T01:31:03.733Z,-13.79
2023-01-11T01:33:30.319Z,-13.66
2023-01-11T01:35:56.853Z,-13.82
2023-01-11T01:38:23.386Z,-13.85
2023-01-11T01:40:49.909Z,-13.87
2023-01-11T01:43:18.147Z,-14.07
2023-01-11T01:45:45.072Z,-13.78
2023-01-11T01:48:16.044Z,-14.03
2023-01-11T01:50:47.715Z,-13.83
2023-01-11T01:53:21.447Z,-13.93
2023-01-11T01:55:57.501Z,-14.13
2023-01-11T01:58:33.022Z,-14.14
2023-01-11T02:00:59.580Z,-14.18
2023-01-11T02:03:27.158Z,-14.15
2023-01-11T02:05:54.036Z,-14.13
2023-01-11T02:08:34.310Z,-14.25
2023-01-11T02:11:02.300Z,-14.11
2023-01-11T02:13:29.115Z,-13.95
2023-01-11T02:15:56.857Z,-14.20
2023-01-11T02:18:23.390Z,-14.22
2023-01-11T02:20:55.531Z,-14.29
2023-01-11T02:24:11.726Z,-14.24
2023-01-11T02:27:00.643Z,-14.21
2023-01-11T02:29:32.887Z,-14.19
2023-01-11T02:32:25.397Z,-14.24
2023-01-11T02:35:29.671Z,-14.44
2023-01-11T02:38:05.117Z,-14.25
2023-01-11T02:40:54.183Z,-14.42
2023-01-11T02:43:47.764Z,-14.35
2023-01-11T02:46:20.459Z,-14.37
2023-01-11T02:48:56.659Z,-14.43
2023-01-11T02:51:38.036Z,-14.40
2023-01-11T02:54:08.306Z,-14.32
2023-01-11T02:56:43.364Z,-14.42
2023-01-11T02:59:13.795Z,-14.33
2023-01-11T03:01:50.971Z,-14.23
2023-01-11T03:04:30.950Z,-14.28
2023-01-11T03:07:15.730Z,-14.54
2023-01-11T03:10:21.125Z,-14.37
2023-01-11T03:13:24.553Z,-14.45
2023-01-11T03:16:21.112Z,-14.38
2023-01-11T03:18:53.676Z,-14.48
2023-01-11T03:21:54.314Z,-14.45
2023-01-11T03:24:48.308Z,-14.34
2023-01-11T03:27:22.647Z,-14.32
2023-01-11T03:29:59.589Z,-14.19
2023-01-11T03:32:38.251Z,-14.29
2023-01-11T03:35:18.365Z,-14.30
2023-01-11T03:37:44.892Z,-14.23
2023-01-11T03:40:14.067Z,-14.38
2023-01-11T03:42:44.010Z,-14.45
2023-01-11T03:45:10.786Z,-14.36
2023-01-11T03:47:37.687Z,-14.45
2023-01-11T03:50:09.549Z,-14.39
2023-01-11T03:52:40.036Z,-14.41
2023-01-11T03:55:10.169Z,-14.48
2023-01-11T03:57:42.474Z,-14.40
2023-01-11T04:00:10.251Z,-14.52
2023-01-11T04:02:40.753Z,-14.51
2023-01-11T04:05:10.804Z,-14.73
2023-01-11T04:07:37.813Z,-14.68
2023-01-11T04:10:05.628Z,-14.62
2023-01-11T04:12:32.316Z,-14.59
2023-01-11T04:14:59.995Z,-14.50
2023-01-11T04:17:26.561Z,-14.62
2023-01-11T04:19:53.182Z,-14.63
2023-01-11T04:22:19.750Z,-14.67
2023-01-11T04:24:46.267Z,-14.75
2023-01-11T04:27:12.856Z,-14.60
2023-01-11T04:29:39.421Z,-14.59
2023-01-11T04:32:05.975Z,-14.65
2023-01-11T04:34:32.530Z,-14.63
2023-01-11T04:36:59.334Z,-14.45
2023-01-11T04:39:25.863Z,-14.59
2023-01-11T04:41:52.469Z,-14.54
2023-01-11T04:44:19.331Z,-14.60
2023-01-11T04:46:45.901Z,-14.84
2023-01-11T04:49:12.582Z,-14.84
2023-01-11T04:51:39.285Z,-14.97
2023-01-11T04:54:06.323Z,-15.13
2023-01-11T04:56:33.293Z,-14.88
2023-01-11T04:58:59.848Z,-14.83
2023-01-11T05:01:26.375Z,-14.78
2023-01-11T05:03:52.984Z,-14.96
2023-01-11T05:06:19.544Z,-14.94
2023-01-11T05:08:47.131Z,-14.81
2023-01-11T05:11:17.044Z,-14.96
2023-01-11T05:13:43.810Z,-14.97
2023-01-11T05:16:21.684Z,-14.93
2023-01-11T05:18:59.079Z,-14.84
2023-01-11T05:21:29.393Z,-14.85
2023-01-11T05:23:55.917Z,-14.82
2023-01-11T05:26:28.295Z,-14.67
2023-01-11T05:28:57.120Z,-14.62
2023-01-11T05:31:23.748Z,-14.61
2023-01-11T05:33:50.338Z,-14.61
2023-01-11T05:36:20.677Z,-14.66
2023-01-11T05:38:48.969Z,-14.57
2023-01-11T05:41:17.127Z,-14.66
2023-01-11T05:43:45.478Z,-14.62
2023-01-11T05:46:12.048Z,-14.52
2023-01-11T05:48:38.564Z,-14.60
2023-01-11T05:51:05.355Z,-14.47
2023-01-11T05:53:31.927Z,-14.42
2023-01-11T05:55:58.805Z,-14.50
2023-01-11T05:58:26.896Z,-14.45
2023-01-11T06:00:55.985Z,-14.38
2023-01-11T06:03:24.594Z,-14.40
2023-01-11T06:05:52.493Z,-14.20
2023-01-11T06:08:19.836Z,-14.15
2023-01-11T06:10:56.898Z,-14.21
2023-01-11T06:13:25.132Z,-14.18
2023-01-11T06:15:51.858Z,-14.14
2023-01-11T06:18:18.471Z,-14.12
2023-01-11T06:20:52.288Z,-13.99
2023-01-11T06:23:19.125Z,-14.03
2023-01-11T06:25:46.097Z,-13.86
2023-01-11T06:28:12.730Z,-13.81
2023-01-11T06:30:39.613Z,-13.81
2023-01-11T06:33:08.585Z,-13.85
2023-01-11T06:35:38.179Z,-13.79
2023-01-11T06:38:05.896Z,-13.55
2023-01-11T06:40:32.585Z,-13.57
2023-01-11T06:42:59.388Z,-13.31
2023-01-11T06:45:26.124Z,-13.44
2023-01-11T06:47:52.766Z,-13.23
2023-01-11T06:50:19.324Z,-13.29
2023-01-11T06:52:56.607Z,-13.20
2023-01-11T06:55:24.748Z,-13.05
2023-01-11T06:57:52.358Z,-13.09
2023-01-11T07:00:19.608Z,-13.10
2023-01-11T07:02:47.310Z,-13.02
2023-01-11T07:05:14.504Z,-12.82
2023-01-11T07:07:42.528Z,-13.14
2023-01-11T07:10:12.092Z,-12.94
2023-01-11T07:12:39.004Z,-12.79
2023-01-11T07:15:07.833Z,-12.79
2023-01-11T07:17:34.678Z,-13.28
2023-01-11T07:20:01.610Z,-13.10
2023-01-11T07:22:28.477Z,-12.96
2023-01-11T07:24:58.672Z,-13.02
2023-01-11T07:27:25.309Z,-12.55
2023-01-11T07:29:51.920Z,-12.52
2023-01-11T07:32:18.459Z,-13.01
2023-01-11T07:34:45.030Z,-12.98
2023-01-11T07:37:29.069Z,-12.96
2023-01-11T07:39:56.217Z,-12.74
2023-01-11T07:42:23.214Z,-13.07
2023-01-11T07:44:49.875Z,-12.75
2023-01-11T07:47:16.382Z,-12.66
2023-01-11T07:49:42.880Z,-12.67
2023-01-11T07:52:09.475Z,-12.51
2023-01-11T07:54:36.024Z,-12.69
2023-01-11T07:57:02.647Z,-12.60
2023-01-11T07:59:29.201Z,-12.52
2023-01-11T08:01:55.778Z,-12.32
2023-01-11T08:04:22.611Z,-12.21
2023-01-11T08:06:49.113Z,-12.28
2023-01-11T08:09:15.614Z,-12.40
2023-01-11T08:11:42.195Z,-12.05
2023-01-11T08:14:10.553Z,-12.52
2023-01-11T08:16:37.154Z,-12.29
2023-01-11T08:19:04.228Z,-12.32
2023-01-11T08:21:31.080Z,-12.19
2023-01-11T08:23:59.309Z,-12.14
2023-01-11T08:26:27.376Z,-12.32
2023-01-11T08:28:54.702Z,-12.19
2023-01-11T08:31:22.038Z,-12.31
2023-01-11T08:33:49.462Z,-12.58
2023-01-11T08:36:15.998Z,-12.15
2023-01-11T08:38:42.562Z,-12.24
2023-01-11T08:41:09.187Z,-12.40
2023-01-11T08:43:39.927Z,-11.97
2023-01-11T08:46:07.125Z,-12.13
2023-01-11T08:48:33.747Z,-11.93
2023-01-11T08:51:00.381Z,-12.04
2023-01-11T08:53:27.037Z,-12.11
2023-01-11T08:55:54.247Z,-12.08
2023-01-11T08:58:21.660Z,-12.09
2023-01-11T09:00:48.252Z,-12.38
2023-01-11T09:03:14.985Z,-11.95
2023-01-11T09:05:42.115Z,-11.89
2023-01-11T09:08:09.136Z,-12.06
2023-01-11T09:10:35.787Z,-11.98
2023-01-11T09:13:02.305Z,-12.03
2023-01-11T09:15:29.008Z,-11.92
2023-01-11T09:17:55.994Z,-11.98
2023-01-11T09:20:22.928Z,-12.23
2023-01-11T09:22:52.911Z,-12.42
2023-01-11T09:25:20.267Z,-12.08
2023-01-11T09:27:48.502Z,-12.08
2023-01-11T09:30:20.684Z,-11.80
2023-01-11T09:32:48.339Z,-12.11
2023-01-11T09:35:15.080Z,-11.98
2023-01-11T09:37:41.748Z,-12.10
2023-01-11T09:40:19.038Z,-11.95
2023-01-11T09:42:50.060Z,-11.90
2023-01-11T09:45:27.162Z,-11.68
2023-01-11T09:48:06.473Z,-11.76
2023-01-11T09:50:38.096Z,-11.98
2023-01-11T09:53:07.246Z,-11.83
2023-01-11T09:55:36.249Z,-12.09
2023-01-11T09:58:50.661Z,-11.77
2023-01-11T10:01:17.136Z,-12.03
2023-01-11T10:03:53.447Z,-11.40
2023-01-11T10:06:30.182Z,-11.35
2023-01-11T10:18:37.854Z,-11.69
2023-01-11T10:19:32.154Z,-11.75
2023-01-11T10:21:51.545Z,-11.61
2023-01-11T10:24:34.583Z,-11.44
2023-01-11T10:27:01.947Z,-11.56
2023-01-11T10:29:41.503Z,-11.43
2023-01-11T10:32:26.548Z,-11.41
2023-01-11T10:34:53.969Z,-11.42
2023-01-11T10:37:25.147Z,-11.50
2023-01-11T10:40:14.979Z,-11.31
2023-01-11T10:43:21.071Z,-11.37
2023-01-11T10:45:55.577Z,-11.47
2023-01-11T10:48:44.160Z,-11.42
2023-01-11T10:51:38.747Z,-11.32
2023-01-11T10:54:15.996Z,-11.26
2023-01-11T10:57:16.684Z,-11.15
2023-01-11T11:00:14.269Z,-11.12
2023-01-11T11:02:49.571Z,-11.12
2023-01-11T11:05:34.975Z,-11.12
2023-01-11T11:08:13.222Z,-11.23
2023-01-11T11:11:02.760Z,-11.16
2023-01-11T11:13:56.229Z,-11.28
2023-01-11T11:16:22.791Z,-11.32
2023-01-11T11:18:51.771Z,-10.92
2023-01-11T11:21:25.855Z,-11.02
2023-01-11T11:24:00.588Z,-10.94
2023-01-11T11:26:40.604Z,-10.84
2023-01-11T11:29:10.259Z,-11.21
2023-01-11T11:31:42.882Z,-10.78
2023-01-11T11:34:19.147Z,-10.97
2023-01-11T11:36:49.858Z,-11.01
2023-01-11T11:39:29.184Z,-10.82
2023-01-11T11:42:04.616Z,-10.66
2023-01-11T11:44:31.248Z,-10.67
2023-01-11T11:47:05.179Z,-10.70
2023-01-11T11:49:33.933Z,-10.64
2023-01-11T11:52:02.759Z,-10.48
2023-01-11T11:55:01.778Z,-10.59
2023-01-11T11:57:32.714Z,-10.49
2023-01-11T12:02:35.582Z,-10.30
2023-01-11T12:05:12.168Z,-10.36
2023-01-11T12:07:55.030Z,-10.24
2023-01-11T12:10:28.056Z,-10.36
2023-01-11T12:12:58.652Z,-10.44
2023-01-11T12:15:30.201Z,-10.50
2023-01-11T12:18:23.366Z,-10.66
2023-01-11T12:20:50.055Z,-10.50
2023-01-11T12:23:26.518Z,-10.49
2023-01-11T12:26:02.173Z,-10.35
2023-01-11T12:28:54.614Z,-10.30
2023-01-11T12:31:30.431Z,-10.35
2023-01-11T12:34:05.099Z,-10.47
2023-01-11T12:36:49.729Z,-10.38
2023-01-11T12:39:30.408Z,-10.22
2023-01-11T12:42:22.068Z,-10.29
2023-01-11T12:45:15.966Z,-10.38
2023-01-11T12:48:03.903Z,-10.25
2023-01-11T12:50:52.196Z,-10.36
2023-01-11T12:53:19.239Z,-10.34
2023-01-11T12:56:11.031Z,-10.45
2023-01-11T12:58:43.178Z,-10.61
2023-01-11T13:01:19.074Z,-10.46
2023-01-11T13:03:57.421Z,-10.47
2023-01-11T13:06:26.624Z,-10.52
2023-01-11T13:09:22.213Z,-10.50
2023-01-11T13:12:10.285Z,-10.31
2023-01-11T13:14:54.819Z,-10.32
2023-01-11T13:17:36.333Z,-10.29
2023-01-11T13:20:22.464Z,-10.36
2023-01-11T13:23:04.238Z,-10.39
2023-01-11T13:25:34.107Z,-10.28
2023-01-11T13:28:04.929Z,-10.36
2023-01-11T13:30:32.021Z,-10.30
2023-01-11T13:33:06.297Z,-10.38
2023-01-11T13:35:45.745Z,-10.28
2023-01-11T13:38:33.942Z,-10.36
2023-01-11T13:41:20.099Z,-10.25
2023-01-11T13:44:05.705Z,-10.07
2023-01-11T13:46:38.501Z,-10.20
2023-01-11T13:49:30.967Z,-10.26
2023-01-11T13:52:10.063Z,-10.45
2023-01-11T13:54:44.303Z,-10.45
2023-01-11T13:57:30.353Z,-10.58
2023-01-11T14:00:04.971Z,-10.28
2023-01-11T14:02:38.612Z,-10.23
2023-01-11T14:05:21.235Z,-10.46
2023-01-11T14:07:59.683Z,-10.53
2023-01-11T14:10:57.455Z,-10.38
2023-01-11T14:13:55.549Z,-10.43
2023-01-11T14:16:36.329Z,-10.37
2023-01-11T14:19:19.711Z,-10.57
2023-01-11T14:22:05.946Z,-10.35
2023-01-11T14:24:36.792Z,-10.37
2023-01-11T14:27:22.213Z,-10.29
2023-01-11T14:30:06.627Z,-10.32
2023-01-11T14:32:58.163Z,-10.47
2023-01-11T14:35:33.331Z,-10.37
2023-01-11T14:38:29.351Z,-10.41
2023-01-11T14:41:25.117Z,-10.37
2023-01-11T14:44:12.837Z,-10.20
2023-01-11T14:47:11.968Z,-10.30
2023-01-11T14:50:03.269Z,-10.29
2023-01-11T14:52:39.987Z,-10.40
2023-01-11T14:55:22.580Z,-10.48
2023-01-11T14:57:54.823Z,-10.48
2023-01-11T15:00:21.332Z,-10.76
2023-01-11T15:03:14.207Z,-10.48
2023-01-11T15:06:02.042Z,-10.41
2023-01-11T15:08:43.193Z,-10.60
2023-01-11T15:11:32.659Z,-10.43
2023-01-11T15:14:19.509Z,-10.47
2023-01-11T15:16:51.789Z,-10.32
2023-01-11T15:19:37.346Z,-10.49
2023-01-11T15:22:06.164Z,-10.24
2023-01-11T15:24:43.043Z,-10.44
2023-01-11T15:27:24.998Z,-10.47
2023-01-11T15:29:56.586Z,-10.50
2023-01-11T15:32:34.405Z,-10.49
2023-01-11T15:35:16.250Z,-10.45
2023-01-11T15:37:58.509Z,-10.52
2023-01-11T15:40:29.489Z,-10.61
2023-01-11T15:43:33.424Z,-10.52
2023-01-11T15:46:13.294Z,-10.58
2023-01-11T15:49:19.695Z,-10.44
2023-01-11T15:52:26.522Z,-10.62
2023-01-11T15:55:43.741Z,-10.61
2023-01-11T15:58:36.668Z,-10.53
2023-01-11T16:01:25.370Z,-10.46
2023-01-11T16:04:24.723Z,-10.64
2023-01-11T16:06:58.808Z,-10.43
2023-01-11T16:09:25.310Z,-10.60
2023-01-11T16:12:21.783Z,-10.54
2023-01-11T16:15:15.588Z,-10.54
2023-01-11T16:17:44.094Z,-10.53
2023-01-11T16:20:19.657Z,-10.66
2023-01-11T16:22:56.749Z,-10.57
2023-01-11T16:25:28.635Z,-10.62
2023-01-11T16:27:57.356Z,-10.76
2023-01-11T16:30:24.755Z,-10.71
2023-01-11T16:32:51.431Z,-10.70
2023-01-11T16:35:21.405Z,-10.75
2023-01-11T16:37:59.148Z,-10.63
2023-01-11T16:40:29.597Z,-10.69
2023-01-11T16:43:02.929Z,-10.58
2023-01-11T16:45:50.477Z,-10.67
2023-01-11T16:48:22.099Z,-10.65
2023-01-11T16:51:06.682Z,-10.69
2023-01-11T16:53:42.345Z,-10.79
2023-01-11T16:56:16.285Z,-10.52
2023-01-11T16:58:43.064Z,-10.48
2023-01-11T17:01:14.460Z,-10.72
2023-01-11T17:03:46.877Z,-10.50
2023-01-11T17:06:13.376Z,-10.42
2023-01-11T17:08:45.470Z,-10.28
2023-01-11T17:11:24.147Z,-10.25
2023-01-11T17:14:16.640Z,-10.37
2023-01-11T17:16:46.722Z,-10.37
2023-01-11T17:19:24.015Z,-10.47
2023-01-11T17:21:56.990Z,-10.38
2023-01-11T17:24:25.263Z,-10.42
2023-01-11T17:26:56.401Z,-10.36
2023-01-11T17:29:44.371Z,-10.51
2023-01-11T17:32:20.045Z,-10.31
2023-01-11T17:34:49.685Z,-10.56
2023-01-11T17:37:18.770Z,-10.53
2023-01-11T17:39:48.720Z,-10.51
2023-01-11T17:42:16.313Z,-10.47
2023-01-11T17:44:44.543Z,-10.51
2023-01-11T17:47:12.545Z,-10.62
2023-01-11T17:49:39.642Z,-10.42
2023-01-11T17:52:11.194Z,-10.22
2023-01-11T17:54:37.682Z,-10.20
2023-01-11T17:57:05.591Z,-10.33
2023-01-11T17:59:32.146Z,-10.38
2023-01-11T18:02:02.871Z,-10.50
2023-01-11T18:04:31.258Z,-10.41
2023-01-11T18:07:08.985Z,-10.10
2023-01-11T18:09:43.925Z,-10.35
2023-01-11T18:12:29.971Z,-10.48
2023-01-11T18:15:00.488Z,-10.19
2023-01-11T18:17:29.463Z,-10.12
2023-01-11T18:19:56.647Z,-10.13
2023-01-11T18:22:34.337Z,-10.15
2023-01-11T18:25:14.886Z,-10.48
2023-01-11T18:27:41.526Z,-10.16
2023-01-11T18:30:31.170Z,-10.04
2023-01-11T18:33:00.689Z,-10.00
2023-01-11T18:35:27.859Z,-10.01
2023-01-11T18:37:54.502Z,-10.07
2023-01-11T18:40:21.569Z,-10.18
2023-01-11T18:42:53.407Z,-10.19
2023-01-11T18:45:20.281Z,-10.02
2023-01-11T18:47:47.710Z,-10.15
2023-01-11T18:50:14.448Z,-10.01
2023-01-11T18:52:41.134Z,-10.05
2023-01-11T18:55:11.811Z,-10.08
2023-01-11T18:57:38.375Z,-10.00
2023-01-11T19:00:05.378Z,-10.26
2023-01-11T19:02:42.477Z,-10.16
2023-01-11T19:05:15.539Z,-10.19
2023-01-11T19:07:42.237Z,-10.28
2023-01-11T19:10:10.286Z,-10.13
2023-01-11T19:12:36.767Z,-10.20
2023-01-11T19:15:03.490Z,-10.11
2023-01-11T19:17:31.845Z,-10.03
2023-01-11T19:19:58.348Z,-9.88
2023-01-11T19:22:26.667Z,-10.02
2023-01-11T19:24:54.068Z,-10.14
2023-01-11T19:27:20.897Z,-10.15
2023-01-11T19:29:47.827Z,-9.91
2023-01-11T19:32:14.636Z,-10.07
2023-01-11T19:34:41.501Z,-10.06
2023-01-11T19:37:08.108Z,-10.03
2023-01-11T19:39:34.627Z,-10.11
2023-01-11T19:42:01.143Z,-9.91
2023-01-11T19:44:34.508Z,-10.09
2023-01-11T19:47:11.222Z,-10.20
2023-01-11T19:49:39.814Z,-10.11
2023-01-11T19:52:06.782Z,-10.24
2023-01-11T19:54:33.287Z,-9.70
2023-01-11T19:56:59.895Z,-9.93
2023-01-11T19:59:26.494Z,-9.87
2023-01-11T20:01:53.053Z,-9.85
2023-01-11T20:04:19.720Z,-9.92
2023-01-11T20:06:46.236Z,-10.21
2023-01-11T20:09:12.723Z,-10.17
2023-01-11T20:11:39.296Z,-10.16
2023-01-11T20:14:05.864Z,-10.17
2023-01-11T20:16:32.356Z,-9.98
2023-01-11T20:18:59.897Z,-9.97
2023-01-11T20:21:28.999Z,-9.93
2023-01-11T20:23:55.909Z,-9.92
2023-01-11T20:26:22.491Z,-10.07
2023-01-11T20:28:54.456Z,-10.03
2023-01-11T20:31:21.600Z,-9.83
2023-01-11T20:33:48.203Z,-9.97
2023-01-11T20:36:17.407Z,-10.18
2023-01-11T20:38:45.536Z,-10.15
2023-01-11T20:41:17.937Z,-10.42
2023-01-11T20:43:44.420Z,-10.40
2023-01-11T20:46:11.093Z,-10.11
2023-01-11T20:48:37.735Z,-10.06
2023-01-11T20:51:04.660Z,-10.30
2023-01-11T20:53:31.196Z,-10.22
2023-01-11T20:55:57.690Z,-10.13
2023-01-11T20:58:24.218Z,-10.27
2023-01-11T21:00:50.811Z,-10.15
2023-01-11T21:03:17.405Z,-10.18
2023-01-11T21:05:43.888Z,-10.27
2023-01-11T21:08:10.464Z,-10.07
2023-01-11T21:10:37.043Z,-10.15
2023-01-11T21:13:03.621Z,-10.16
2023-01-11T21:15:30.156Z,-10.16
2023-01-11T21:17:56.745Z,-9.95
2023-01-11T21:20:23.346Z,-9.78
2023-01-11T21:22:49.912Z,-10.08
2023-01-11T21:25:17.122Z,-10.09
2023-01-11T21:27:43.733Z,-9.96
2023-01-11T21:30:10.861Z,-10.10
2023-01-11T21:32:37.463Z,-9.93
2023-01-11T21:35:04.390Z,-10.00
2023-01-11T21:37:30.956Z,-10.01
2023-01-11T21:39:57.543Z,-9.98
2023-01-11T21:42:24.225Z,-10.00
2023-01-11T21:44:50.912Z,-10.17
2023-01-11T21:47:17.411Z,-10.11
2023-01-11T21:49:43.908Z,-9.99
2023-01-11T21:52:10.682Z,-9.86
2023-01-11T21:54:37.234Z,-10.02
2023-01-11T21:57:03.834Z,-9.82
2023-01-11T21:59:30.450Z,-9.94
2023-01-11T22:01:57.535Z,-10.07
2023-01-11T22:04:24.042Z,-10.10
2023-01-11T22:06:50.568Z,-10.19
2023-01-11T22:09:17.736Z,-10.03
2023-01-11T22:11:44.256Z,-10.24
2023-01-11T22:14:10.936Z,-10.12
2023-01-11T22:16:37.899Z,-9.87
2023-01-11T22:19:06.382Z,-10.10
2023-01-11T22:21:33.051Z,-10.17
2023-01-11T22:23:59.790Z,-10.08
2023-01-11T22:26:28.013Z,-10.07
2023-01-11T22:28:55.839Z,-10.21
2023-01-11T22:31:22.586Z,-10.17
2023-01-11T22:33:49.180Z,-10.01
2023-01-11T22:36:17.197Z,-9.83
2023-01-11T22:38:43.737Z,-9.88
2023-01-11T22:41:10.790Z,-10.16
2023-01-11T22:43:37.311Z,-10.12
2023-01-11T22:46:03.968Z,-9.98
2023-01-11T22:48:30.786Z,-10.14
2023-01-11T22:50:57.940Z,-10.19
2023-01-11T22:53:24.562Z,-10.41
2023-01-11T22:55:51.082Z,-10.25
2023-01-11T22:58:17.610Z,-10.23
2023-01-11T23:00:44.146Z,-10.04
2023-01-11T23:03:11.062Z,-10.37
2023-01-11T23:05:44.349Z,-10.22
2023-01-11T23:08:10.789Z,-10.32
2023-01-11T23:10:37.287Z,-10.30
2023-01-11T23:13:03.952Z,-10.18
2023-01-11T23:15:30.448Z,-10.09
2023-01-11T23:17:57.061Z,-9.93
2023-01-11T23:20:23.747Z,-10.22
2023-01-11T23:22:50.475Z,-10.17
2023-01-11T23:25:16.964Z,-10.07
2023-01-11T23:27:43.839Z,-10.12
2023-01-11T23:30:11.095Z,-10.27
2023-01-11T23:32:37.533Z,-10.11
2023-01-11T23:35:04.348Z,-9.89
2023-01-11T23:37:30.927Z,-9.87
2023-01-11T23:39:57.498Z,-10.02
2023-01-11T23:42:24.058Z,-10.14
2023-01-11T23:44:51.001Z,-10.13
2023-01-11T23:47:18.568Z,-10.13
2023-01-11T23:49:45.180Z,-10.09
2023-01-11T23:52:11.857Z,-10.40
2023-01-11T23:54:38.356Z,-10.36
2023-01-11T23:57:05.065Z,-10.16
2023-01-11T23:59:31.628Z,-10.57
